Time;durP1;ratioP1;P1;durP2;ratioP2;P2;SDS_P1;SDS_P2;PMS_P1;PMS_P2;Temp;Humidity;BMP_temperature;BMP_pressure;BME280_temperature;BME280_humidity;BME280_pressure;Samples;Min_cycle;Max_cycle;Signal;HPM_P1;HPM_P2
2021/09/18 00:01:02;;;;;;;2.38;1.15;;;16.50;92.50;;;;;;5044603;28;20116;-67
2021/09/18 00:03:30;;;;;;;2.80;1.10;;;16.50;92.50;;;;;;5045202;28;20030;-67
2021/09/18 00:05:56;;;;;;;2.63;1.00;;;16.50;92.70;;;;;;5033705;28;20071;-67
2021/09/18 00:08:21;;;;;;;1.40;1.10;;;16.50;92.70;;;;;;5031552;28;20510;-67
2021/09/18 00:10:47;;;;;;;2.83;1.20;;;16.40;92.90;;;;;;5033700;28;20055;-68
2021/09/18 00:13:12;;;;;;;1.30;1.20;;;16.40;92.80;;;;;;5033647;28;20047;-68
2021/09/18 00:15:38;;;;;;;1.80;1.20;;;16.40;92.80;;;;;;5032026;28;20037;-68
2021/09/18 00:18:03;;;;;;;2.60;1.20;;;16.40;92.90;;;;;;5033952;28;20013;-68
2021/09/18 00:20:30;;;;;;;1.90;1.10;;;16.40;93.00;;;;;;5053265;28;20025;-67
2021/09/18 00:22:56;;;;;;;2.22;1.15;;;16.40;93.10;;;;;;5039481;28;20033;-67
2021/09/18 00:25:22;;;;;;;2.53;1.23;;;16.30;93.20;;;;;;5033173;28;20371;-68
2021/09/18 00:27:47;;;;;;;1.77;1.00;;;16.30;93.20;;;;;;5031798;28;20371;-68
2021/09/18 00:30:13;;;;;;;2.45;1.20;;;16.40;93.20;;;;;;5053283;28;20040;-68
2021/09/18 00:32:38;;;;;;;3.50;1.33;;;16.40;93.20;;;;;;5043955;28;20541;-68
2021/09/18 00:35:05;;;;;;;1.92;1.20;;;16.30;93.30;;;;;;5032480;28;20144;-68
2021/09/18 00:37:31;;;;;;;2.35;1.20;;;16.30;93.30;;;;;;5031940;28;20485;-68
2021/09/18 00:39:56;;;;;;;2.63;1.40;;;16.30;93.30;;;;;;5050086;28;20100;-68
2021/09/18 00:42:22;;;;;;;2.53;1.30;;;16.40;93.30;;;;;;5043742;28;20028;-67
2021/09/18 00:44:47;;;;;;;3.42;1.45;;;16.40;93.40;;;;;;5033059;28;20033;-67
2021/09/18 00:47:13;;;;;;;2.25;1.15;;;16.30;93.40;;;;;;5032252;28;20025;-67
2021/09/18 00:49:38;;;;;;;1.92;1.30;;;16.30;93.50;;;;;;5046423;28;20032;-67
2021/09/18 00:52:04;;;;;;;4.03;1.50;;;16.30;93.50;;;;;;5048080;28;20028;-67
2021/09/18 00:54:29;;;;;;;3.05;1.60;;;16.20;93.60;;;;;;5045329;28;20529;-67
2021/09/18 00:56:57;;;;;;;3.30;1.58;;;16.30;93.60;;;;;;5049368;28;20396;-67
2021/09/18 00:59:23;;;;;;;3.75;1.50;;;16.30;93.70;;;;;;5031799;28;20087;-67
2021/09/18 01:01:49;;;;;;;2.30;1.52;;;16.30;93.70;;;;;;5048317;28;20029;-67
2021/09/18 01:04:14;;;;;;;2.30;1.30;;;16.20;93.70;;;;;;5025714;28;20038;-67
2021/09/18 01:06:40;;;;;;;3.63;1.48;;;16.30;93.70;;;;;;5032086;28;20035;-67
2021/09/18 01:09:06;;;;;;;2.78;1.50;;;16.20;93.80;;;;;;5029758;28;20041;-67
2021/09/18 01:11:31;;;;;;;2.30;1.33;;;16.30;93.80;;;;;;5031750;28;20037;-67
2021/09/18 01:13:57;;;;;;;3.53;1.55;;;16.30;93.80;;;;;;5039557;28;20025;-67
2021/09/18 01:16:24;;;;;;;1.95;1.33;;;16.30;93.90;;;;;;5033735;28;20045;-67
2021/09/18 01:18:49;;;;;;;2.80;1.45;;;16.30;94.00;;;;;;5031124;28;20116;-68
2021/09/18 01:21:16;;;;;;;3.95;1.70;;;16.30;94.00;;;;;;5030751;28;20529;-68
2021/09/18 01:23:42;;;;;;;2.08;1.40;;;16.30;94.00;;;;;;5037963;28;20044;-67
2021/09/18 01:26:08;;;;;;;2.92;1.60;;;16.30;94.10;;;;;;5032083;28;20409;-67
2021/09/18 01:28:39;;;;;;;2.50;1.52;;;16.20;94.10;;;;;;5031669;28;20025;-68
2021/09/18 01:31:05;;;;;;;3.22;1.50;;;16.20;94.20;;;;;;5031610;28;20079;-67
2021/09/18 01:33:31;;;;;;;2.58;1.60;;;16.20;94.20;;;;;;5031405;28;20091;-67
2021/09/18 01:35:56;;;;;;;3.22;1.60;;;16.10;94.30;;;;;;5031053;28;20033;-67
2021/09/18 01:38:22;;;;;;;2.47;1.58;;;16.10;94.40;;;;;;5030661;28;20028;-67
2021/09/18 01:40:48;;;;;;;3.08;1.65;;;16.10;94.40;;;;;;5031454;28;20037;-67
2021/09/18 01:43:14;;;;;;;2.17;1.60;;;16.10;94.40;;;;;;5030508;28;20562;-67
2021/09/18 01:45:40;;;;;;;4.03;1.55;;;16.10;94.40;;;;;;5031076;28;20029;-67
2021/09/18 01:48:09;;;;;;;2.30;1.80;;;16.10;94.50;;;;;;5031043;28;20049;-67
2021/09/18 01:50:59;;;;;;;3.70;1.48;;;16.20;94.50;;;;;;5039639;28;20108;-67
2021/09/18 01:53:25;;;;;;;2.30;1.60;;;16.10;94.40;;;;;;5035152;28;20032;-67
2021/09/18 01:55:52;;;;;;;2.20;1.50;;;16.20;94.40;;;;;;5031011;28;20060;-67
2021/09/18 01:58:19;;;;;;;2.22;1.50;;;16.10;94.40;;;;;;5030250;28;20052;-67
2021/09/18 02:00:52;;;;;;;3.63;1.50;;;16.20;94.50;;;;;;5041191;28;20424;-68
2021/09/18 02:03:17;;;;;;;4.38;1.65;;;16.10;94.60;;;;;;5046129;28;20026;-67
2021/09/18 02:05:43;;;;;;;3.30;1.67;;;16.10;94.70;;;;;;5031060;28;20083;-67
2021/09/18 02:08:09;;;;;;;2.83;1.70;;;16.10;94.70;;;;;;5031423;28;20026;-67
2021/09/18 02:10:35;;;;;;;3.45;1.50;;;16.10;94.70;;;;;;5041371;28;20035;-67
2021/09/18 02:13:02;;;;;;;3.85;1.90;;;16.10;94.70;;;;;;5030524;28;20441;-67
2021/09/18 02:15:28;;;;;;;3.08;1.75;;;16.10;94.80;;;;;;5030285;28;20485;-67
2021/09/18 02:17:54;;;;;;;1.88;1.35;;;16.10;94.80;;;;;;5029312;28;20060;-67
2021/09/18 02:20:21;;;;;;;2.47;1.50;;;16.10;94.80;;;;;;5031178;28;20025;-67
2021/09/18 02:22:47;;;;;;;3.63;1.52;;;16.20;94.80;;;;;;5029402;28;20029;-66
2021/09/18 02:25:14;;;;;;;2.67;1.35;;;16.10;94.80;;;;;;5050284;28;20489;-67
2021/09/18 02:27:39;;;;;;;6.25;1.55;;;16.10;94.90;;;;;;5032423;28;20460;-67
2021/09/18 02:30:07;;;;;;;1.80;1.40;;;16.20;95.00;;;;;;5047862;28;20117;-67
2021/09/18 02:32:35;;;;;;;3.75;1.50;;;16.20;94.90;;;;;;5034240;28;20109;-67
2021/09/18 02:35:02;;;;;;;2.08;1.40;;;16.20;94.90;;;;;;5048322;28;20102;-67
2021/09/18 02:37:28;;;;;;;1.88;1.27;;;16.10;94.90;;;;;;5037647;28;20030;-67
2021/09/18 02:39:53;;;;;;;2.05;1.33;;;16.20;95.00;;;;;;5034403;28;20078;-67
2021/09/18 02:42:19;;;;;;;2.10;1.75;;;16.20;95.00;;;;;;5034536;28;20026;-66
2021/09/18 02:44:44;;;;;;;2.53;1.50;;;16.10;95.00;;;;;;5049292;28;20036;-67
2021/09/18 02:47:10;;;;;;;3.42;1.50;;;16.20;95.10;;;;;;5042786;28;20040;-67
2021/09/18 02:49:35;;;;;;;2.10;1.30;;;16.10;95.00;;;;;;5047706;28;20035;-67
2021/09/18 02:52:01;;;;;;;4.78;1.80;;;16.20;95.10;;;;;;5042918;28;20029;-67
2021/09/18 02:54:26;;;;;;;2.13;1.33;;;16.20;95.10;;;;;;5037544;28;20034;-66
2021/09/18 02:56:52;;;;;;;1.83;1.40;;;16.20;95.10;;;;;;5033827;28;20484;-67
2021/09/18 02:59:17;;;;;;;2.90;1.75;;;16.20;95.20;;;;;;5043741;28;20120;-66
2021/09/18 03:01:42;;;;;;;2.53;1.45;;;16.20;95.20;;;;;;5046399;28;20579;-67
2021/09/18 03:04:08;;;;;;;3.42;1.50;;;16.20;95.20;;;;;;5050655;28;20029;-66
2021/09/18 03:06:33;;;;;;;2.58;1.33;;;16.20;95.40;;;;;;5047789;28;20025;-66
2021/09/18 03:08:59;;;;;;;4.22;1.58;;;16.20;95.30;;;;;;5041942;28;20018;-66
2021/09/18 03:11:25;;;;;;;2.40;1.70;;;16.30;95.30;;;;;;5051153;28;22873;-66
2021/09/18 03:13:50;;;;;;;2.58;1.58;;;16.20;95.30;;;;;;5033630;28;20088;-67
2021/09/18 03:16:17;;;;;;;2.88;1.60;;;16.20;95.30;;;;;;5032878;28;20049;-67
2021/09/18 03:18:42;;;;;;;3.22;1.42;;;16.20;95.30;;;;;;5050087;28;20090;-67
2021/09/18 03:21:08;;;;;;;2.67;1.80;;;16.30;95.30;;;;;;5048816;28;20538;-67
2021/09/18 03:23:33;;;;;;;2.35;1.55;;;16.20;95.30;;;;;;5032664;28;20025;-66
2021/09/18 03:25:59;;;;;;;2.53;1.65;;;16.30;95.30;;;;;;5049591;28;20109;-67
2021/09/18 03:28:24;;;;;;;3.40;1.90;;;16.20;95.30;;;;;;5036845;28;20053;-66
2021/09/18 03:30:50;;;;;;;3.78;2.10;;;16.20;95.40;;;;;;5033755;28;20034;-67
2021/09/18 03:33:15;;;;;;;2.60;1.48;;;16.20;95.40;;;;;;5034040;28;20087;-67
2021/09/18 03:35:42;;;;;;;3.70;1.67;;;16.10;95.40;;;;;;5048600;28;20042;-66
2021/09/18 03:38:08;;;;;;;3.85;2.20;;;16.10;95.60;;;;;;5034948;28;20026;-67
2021/09/18 03:40:34;;;;;;;5.70;2.20;;;16.00;95.60;;;;;;5037138;28;20045;-66
2021/09/18 03:42:59;;;;;;;3.80;1.60;;;16.00;95.70;;;;;;5033771;28;20022;-66
2021/09/18 03:45:25;;;;;;;4.97;1.80;;;16.00;95.80;;;;;;5041285;28;20040;-67
2021/09/18 03:47:50;;;;;;;3.33;2.20;;;16.00;95.80;;;;;;5051111;28;20025;-67
2021/09/18 03:50:16;;;;;;;3.10;1.85;;;16.00;95.80;;;;;;5040086;28;20124;-66
2021/09/18 03:52:41;;;;;;;2.75;1.67;;;16.00;95.80;;;;;;5032549;28;20036;-67
2021/09/18 03:55:07;;;;;;;2.92;2.00;;;16.00;95.90;;;;;;5035759;28;20501;-66
2021/09/18 03:57:33;;;;;;;4.22;1.70;;;16.10;95.90;;;;;;5032025;28;20104;-67
2021/09/18 03:59:58;;;;;;;3.28;1.90;;;16.00;96.00;;;;;;5038059;28;20021;-66
2021/09/18 04:02:24;;;;;;;3.05;1.85;;;16.10;96.00;;;;;;5032167;28;20478;-67
2021/09/18 04:04:49;;;;;;;2.22;1.63;;;16.10;96.00;;;;;;5047373;28;20025;-67
2021/09/18 04:07:15;;;;;;;3.22;1.75;;;16.10;96.00;;;;;;5033621;28;20486;-65
2021/09/18 04:09:40;;;;;;;2.95;1.70;;;16.10;96.10;;;;;;5036217;28;20040;-67
2021/09/18 04:12:06;;;;;;;5.80;2.05;;;16.10;96.10;;;;;;5028951;28;20033;-67
2021/09/18 04:14:31;;;;;;;2.65;1.90;;;16.10;96.10;;;;;;5032161;28;20029;-66
2021/09/18 04:16:57;;;;;;;3.88;1.90;;;16.10;96.10;;;;;;5035770;28;20037;-67
2021/09/18 04:19:22;;;;;;;3.10;1.60;;;16.10;96.10;;;;;;5048357;28;20079;-67
2021/09/18 04:21:48;;;;;;;2.05;1.58;;;16.10;96.10;;;;;;5033458;28;20034;-67
2021/09/18 04:24:13;;;;;;;2.25;1.40;;;16.10;96.10;;;;;;5042251;28;20032;-67
2021/09/18 04:26:39;;;;;;;2.50;1.83;;;16.20;96.20;;;;;;5045011;28;20029;-67
2021/09/18 04:29:04;;;;;;;3.88;1.85;;;16.10;96.30;;;;;;5034216;28;20113;-67
2021/09/18 04:31:30;;;;;;;5.25;2.00;;;16.00;96.40;;;;;;5042023;28;20133;-67
2021/09/18 04:33:56;;;;;;;3.78;1.85;;;16.00;96.40;;;;;;5022783;28;20029;-67
2021/09/18 04:36:21;;;;;;;3.78;1.92;;;16.10;96.40;;;;;;5032166;28;20501;-67
2021/09/18 04:38:47;;;;;;;4.10;1.75;;;16.10;96.40;;;;;;5039492;28;20023;-67
2021/09/18 04:41:13;;;;;;;3.20;1.80;;;16.10;96.50;;;;;;5048577;28;20383;-67
2021/09/18 04:43:39;;;;;;;4.75;1.92;;;16.10;96.60;;;;;;5031161;28;20057;-66
2021/09/18 04:46:04;;;;;;;3.08;2.03;;;16.00;96.60;;;;;;5032266;28;20473;-67
2021/09/18 04:48:30;;;;;;;2.75;1.98;;;16.00;96.70;;;;;;5031813;28;20529;-67
2021/09/18 04:50:56;;;;;;;4.35;2.20;;;16.00;96.80;;;;;;5032889;28;20136;-67
2021/09/18 04:53:22;;;;;;;4.07;2.45;;;16.00;97.00;;;;;;5034710;28;20021;-66
2021/09/18 04:55:47;;;;;;;5.18;2.10;;;15.90;97.00;;;;;;5032362;28;20383;-66
2021/09/18 04:58:13;;;;;;;4.88;2.50;;;15.90;97.10;;;;;;5031024;28;20013;-67
2021/09/18 05:00:38;;;;;;;3.72;2.38;;;15.90;97.10;;;;;;5030128;28;20535;-67
2021/09/18 05:03:04;;;;;;;3.90;2.25;;;16.00;97.10;;;;;;5032683;28;20124;-68
2021/09/18 05:05:30;;;;;;;2.70;1.83;;;16.00;97.20;;;;;;5049740;28;20021;-67
2021/09/18 05:07:55;;;;;;;3.90;2.50;;;16.00;97.20;;;;;;5028782;28;20025;-67
2021/09/18 05:10:21;;;;;;;3.83;2.50;;;16.00;97.30;;;;;;5052170;28;20025;-66
2021/09/18 05:12:46;;;;;;;4.18;2.47;;;16.10;97.30;;;;;;5042948;28;20053;-66
2021/09/18 05:15:13;;;;;;;6.32;3.40;;;16.00;97.40;;;;;;5039542;28;20041;-66
2021/09/18 05:17:38;;;;;;;4.70;3.03;;;16.00;97.40;;;;;;5028662;28;20064;-67
2021/09/18 05:20:05;;;;;;;5.40;2.38;;;15.90;97.60;;;;;;5031067;28;20083;-66
2021/09/18 05:22:30;;;;;;;6.55;2.95;;;15.90;97.60;;;;;;5030443;28;20021;-67
2021/09/18 05:24:56;;;;;;;5.35;2.45;;;15.90;97.70;;;;;;5030920;28;20470;-66
2021/09/18 05:27:21;;;;;;;5.45;2.53;;;16.00;97.70;;;;;;5030628;28;20032;-66
2021/09/18 05:29:47;;;;;;;4.05;2.80;;;15.90;97.70;;;;;;5028091;28;20025;-66
2021/09/18 05:32:13;;;;;;;3.95;2.60;;;16.00;97.80;;;;;;5032076;28;20481;-67
2021/09/18 05:34:40;;;;;;;3.88;2.47;;;16.00;97.80;;;;;;5043092;28;20116;-66
2021/09/18 05:37:05;;;;;;;3.75;2.55;;;16.00;97.80;;;;;;5043184;28;20037;-68
2021/09/18 05:39:31;;;;;;;4.25;2.47;;;16.10;97.90;;;;;;5031093;28;20091;-67
2021/09/18 05:41:57;;;;;;;4.10;2.65;;;16.10;97.90;;;;;;5031331;28;20753;-67
2021/09/18 05:44:22;;;;;;;4.60;2.85;;;16.10;98.00;;;;;;5022182;28;20030;-67
2021/09/18 05:46:48;;;;;;;3.53;2.28;;;16.00;98.00;;;;;;5012916;28;20441;-67
2021/09/18 05:49:14;;;;;;;3.85;2.38;;;16.10;98.10;;;;;;5034749;28;20037;-67
2021/09/18 05:51:39;;;;;;;3.92;2.67;;;16.10;98.10;;;;;;5031112;28;20022;-67
2021/09/18 05:54:05;;;;;;;4.57;2.90;;;16.10;98.20;;;;;;5040188;28;20033;-67
2021/09/18 05:56:30;;;;;;;3.92;2.75;;;16.10;98.30;;;;;;5050804;28;20117;-67
2021/09/18 05:58:56;;;;;;;2.95;2.03;;;16.10;98.30;;;;;;5038955;28;20381;-70
2021/09/18 06:01:21;;;;;;;4.70;2.25;;;16.20;99.00;;;;;;5028519;28;20033;-70
2021/09/18 06:03:47;;;;;;;3.95;2.38;;;16.40;98.80;;;;;;5040248;28;20079;-73
2021/09/18 06:06:13;;;;;;;4.75;2.80;;;16.60;98.50;;;;;;5044652;28;20446;-73
2021/09/18 06:08:38;;;;;;;4.63;2.20;;;16.70;98.50;;;;;;5040260;28;20051;-73
2021/09/18 06:11:04;;;;;;;3.90;2.17;;;16.80;98.30;;;;;;5037501;28;20381;-72
2021/09/18 06:13:29;;;;;;;4.00;2.40;;;16.80;98.30;;;;;;5038025;28;20017;-72
2021/09/18 06:15:55;;;;;;;4.20;2.40;;;16.90;98.30;;;;;;5041368;28;20064;-72
2021/09/18 06:18:21;;;;;;;3.95;2.22;;;17.00;98.30;;;;;;5042179;28;20071;-72
2021/09/18 06:20:46;;;;;;;2.80;1.90;;;17.10;98.10;;;;;;5040145;28;20494;-72
2021/09/18 06:23:12;;;;;;;2.95;1.90;;;17.20;97.90;;;;;;5038393;28;20017;-75
2021/09/18 06:25:37;;;;;;;3.00;1.88;;;17.30;98.10;;;;;;5042597;28;20085;-73
2021/09/18 06:28:03;;;;;;;3.17;2.13;;;17.50;97.90;;;;;;5047048;28;20087;-73
2021/09/18 06:30:28;;;;;;;3.42;2.20;;;17.60;97.70;;;;;;5040171;28;20029;-74
2021/09/18 06:32:54;;;;;;;3.55;2.53;;;17.60;97.70;;;;;;5040517;28;20024;-72
2021/09/18 06:35:19;;;;;;;4.57;2.92;;;17.50;97.50;;;;;;5031293;28;20434;-71
2021/09/18 06:37:47;;;;;;;3.53;1.90;;;17.40;97.60;;;;;;5048279;28;20052;-71
2021/09/18 06:40:15;;;;;;;4.00;2.50;;;17.40;97.70;;;;;;5038642;28;20056;-72
2021/09/18 06:42:41;;;;;;;5.57;2.42;;;17.40;97.60;;;;;;5039676;28;20091;-71
2021/09/18 06:45:08;;;;;;;5.38;2.10;;;17.40;97.70;;;;;;5030483;28;20033;-72
2021/09/18 06:47:34;;;;;;;3.28;2.25;;;17.40;97.80;;;;;;5032646;28;20521;-72
2021/09/18 06:49:59;;;;;;;2.97;2.08;;;17.50;97.70;;;;;;5033125;28;20121;-72
2021/09/18 06:52:25;;;;;;;3.13;2.40;;;17.50;97.70;;;;;;5039534;28;20389;-72
2021/09/18 06:54:50;;;;;;;3.67;2.80;;;17.50;97.60;;;;;;5035363;28;20509;-73
2021/09/18 06:57:16;;;;;;;3.20;2.00;;;17.50;97.60;;;;;;5032837;28;20021;-72
2021/09/18 06:59:41;;;;;;;4.05;2.55;;;17.50;97.80;;;;;;5036973;28;20041;-72
2021/09/18 07:02:08;;;;;;;3.25;2.35;;;17.60;97.80;;;;;;5044673;28;20029;-72
2021/09/18 07:04:35;;;;;;;4.05;2.95;;;17.60;97.80;;;;;;5043472;28;20021;-71
2021/09/18 07:07:04;;;;;;;4.68;2.97;;;17.60;97.90;;;;;;5040341;28;20044;-72
2021/09/18 07:09:30;;;;;;;5.07;3.30;;;17.50;97.90;;;;;;5040342;28;20037;-72
2021/09/18 07:11:55;;;;;;;5.22;3.63;;;17.50;97.80;;;;;;5032564;28;20024;-72
2021/09/18 07:14:21;;;;;;;4.55;3.03;;;17.50;97.90;;;;;;5033331;28;20037;-72
2021/09/18 07:16:46;;;;;;;6.55;3.30;;;17.40;97.90;;;;;;5034274;28;20117;-72
2021/09/18 07:19:12;;;;;;;4.35;2.35;;;17.50;98.10;;;;;;5044012;28;20053;-72
2021/09/18 07:21:37;;;;;;;5.60;3.30;;;17.50;98.10;;;;;;5018965;28;20508;-73
2021/09/18 07:24:05;;;;;;;6.05;3.10;;;17.70;98.00;;;;;;5023941;28;20037;-73
2021/09/18 07:26:31;;;;;;;4.82;3.67;;;17.70;98.00;;;;;;5029103;28;20088;-73
2021/09/18 07:28:57;;;;;;;4.45;3.30;;;17.70;98.00;;;;;;5022882;28;20026;-73
2021/09/18 07:31:22;;;;;;;4.30;3.05;;;17.60;98.00;;;;;;5034442;28;20030;-73
2021/09/18 07:33:48;;;;;;;5.05;3.60;;;17.60;98.10;;;;;;5031924;28;20506;-72
2021/09/18 07:36:15;;;;;;;7.75;3.97;;;17.60;98.20;;;;;;5033157;28;20132;-72
2021/09/18 07:38:40;;;;;;;5.75;4.38;;;17.70;98.20;;;;;;5032639;28;20026;-73
2021/09/18 07:41:06;;;;;;;4.20;3.35;;;17.70;98.30;;;;;;5036239;28;20044;-73
2021/09/18 07:43:32;;;;;;;6.57;3.60;;;17.70;98.30;;;;;;5032821;28;20406;-73
2021/09/18 07:45:57;;;;;;;8.57;4.47;;;17.70;98.30;;;;;;5021725;28;20532;-72
2021/09/18 07:48:23;;;;;;;4.97;3.90;;;17.70;98.50;;;;;;5029650;28;20033;-73
2021/09/18 07:50:48;;;;;;;6.40;4.05;;;17.70;98.50;;;;;;5013900;28;20573;-72
2021/09/18 07:53:14;;;;;;;6.90;3.25;;;17.70;98.50;;;;;;5022001;28;20036;-72
2021/09/18 07:55:39;;;;;;;7.75;3.58;;;17.70;98.60;;;;;;5042102;28;20045;-72
2021/09/18 07:58:05;;;;;;;6.97;4.00;;;17.80;98.60;;;;;;5050182;28;20052;-72
2021/09/18 08:00:30;;;;;;;4.53;3.53;;;17.80;98.60;;;;;;5030911;28;20121;-72
2021/09/18 08:02:56;;;;;;;7.07;4.07;;;17.90;98.80;;;;;;5030357;28;20029;-76
2021/09/18 08:05:23;;;;;;;6.50;3.70;;;18.00;98.60;;;;;;5036361;28;20020;-76
2021/09/18 08:07:49;;;;;;;5.10;3.47;;;18.10;98.60;;;;;;5032818;28;20045;-77
2021/09/18 08:10:15;;;;;;;7.25;3.65;;;18.10;98.50;;;;;;5035658;28;20028;-74
2021/09/18 08:12:47;;;;;;;5.07;3.63;;;18.20;98.50;;;;;;5034064;28;20451;-75
2021/09/18 08:15:12;;;;;;;5.57;3.40;;;18.20;98.50;;;;;;5037032;28;20034;-74
2021/09/18 08:17:39;;;;;;;4.80;2.95;;;18.30;98.40;;;;;;5037239;28;20025;-73
2021/09/18 08:20:06;;;;;;;4.53;3.40;;;18.40;98.40;;;;;;5026386;28;20021;-73
2021/09/18 08:22:31;;;;;;;3.90;2.78;;;18.40;98.20;;;;;;5034751;28;20029;-73
2021/09/18 08:24:57;;;;;;;4.82;2.90;;;18.50;98.30;;;;;;5054050;28;20035;-72
2021/09/18 08:27:23;;;;;;;6.15;2.38;;;18.60;98.40;;;;;;5031108;28;20057;-72
2021/09/18 08:29:49;;;;;;;5.18;2.50;;;18.60;98.20;;;;;;5030396;28;20025;-72
2021/09/18 08:32:15;;;;;;;3.72;2.20;;;18.60;98.00;;;;;;5030023;28;20037;-72
2021/09/18 08:34:40;;;;;;;4.65;2.22;;;18.70;98.10;;;;;;5032156;28;20306;-72
2021/09/18 08:37:06;;;;;;;3.05;1.75;;;18.80;98.10;;;;;;5030592;28;20132;-73
2021/09/18 08:39:35;;;;;;;2.67;1.90;;;18.90;98.00;;;;;;5033836;28;21999;-71
2021/09/18 08:42:02;;;;;;;3.13;1.80;;;19.00;97.80;;;;;;5037397;28;20029;-73
2021/09/18 08:44:27;;;;;;;3.17;1.70;;;19.00;97.40;;;;;;5024237;28;20021;-70
2021/09/18 08:46:53;;;;;;;3.03;1.70;;;18.90;97.30;;;;;;5030179;28;20052;-71
2021/09/18 08:49:18;;;;;;;4.22;1.63;;;18.90;97.10;;;;;;5031279;28;20477;-71
2021/09/18 08:51:44;;;;;;;3.03;1.58;;;18.90;97.10;;;;;;5030967;28;20021;-73
2021/09/18 08:54:10;;;;;;;2.03;1.20;;;18.90;97.10;;;;;;5057039;28;20035;-71
2021/09/18 08:56:38;;;;;;;1.95;1.30;;;18.90;96.80;;;;;;5043327;28;20045;-74
2021/09/18 08:59:03;;;;;;;2.83;1.33;;;19.00;96.90;;;;;;5031192;28;20029;-73
2021/09/18 09:01:31;;;;;;;2.15;1.38;;;19.00;96.90;;;;;;5033100;28;20033;-70
2021/09/18 09:03:58;;;;;;;1.25;1.00;;;19.00;96.50;;;;;;5037199;28;20143;-73
2021/09/18 09:06:26;;;;;;;0.82;0.80;;;19.00;96.40;;;;;;5038652;28;20073;-69
2021/09/18 09:08:56;;;;;;;3.20;1.20;;;19.00;96.50;;;;;;5026611;28;20119;-69
2021/09/18 09:11:25;;;;;;;2.15;0.90;;;19.00;96.40;;;;;;5028789;28;20033;-69
2021/09/18 09:14:02;;;;;;;2.47;0.82;;;19.10;96.50;;;;;;5038536;28;20025;-69
2021/09/18 09:16:29;;;;;;;1.88;0.90;;;19.10;96.60;;;;;;5024310;28;20045;-68
2021/09/18 09:18:56;;;;;;;2.55;0.80;;;19.20;96.50;;;;;;5024022;28;20112;-69
2021/09/18 09:21:27;;;;;;;2.72;0.98;;;19.30;96.40;;;;;;5028637;28;20121;-69
2021/09/18 09:24:13;;;;;;;1.35;0.88;;;19.30;96.20;;;;;;5026653;28;20025;-69
2021/09/18 09:26:59;;;;;;;2.10;0.90;;;19.30;96.10;;;;;;5044472;28;20049;-69
2021/09/18 09:29:47;;;;;;;3.25;1.08;;;19.30;96.20;;;;;;5025631;28;20033;-69
2021/09/18 09:32:33;;;;;;;2.53;1.00;;;19.30;96.30;;;;;;5032482;28;20033;-69
2021/09/18 09:35:03;;;;;;;3.13;1.10;;;19.30;96.50;;;;;;5018635;28;20091;-70
2021/09/18 09:37:28;;;;;;;2.30;1.10;;;19.30;96.50;;;;;;5037530;28;20032;-68
2021/09/18 09:39:57;;;;;;;1.40;0.98;;;19.30;96.50;;;;;;5046581;28;20037;-69
2021/09/18 09:42:29;;;;;;;1.98;1.08;;;19.30;96.60;;;;;;5053110;28;20021;-69
2021/09/18 09:45:12;;;;;;;1.27;0.95;;;19.30;96.50;;;;;;5050091;28;20036;-69
2021/09/18 09:47:38;;;;;;;2.60;1.17;;;19.30;96.50;;;;;;5039412;28;20022;-68
2021/09/18 09:50:05;;;;;;;1.48;1.02;;;19.30;96.50;;;;;;5038106;28;20033;-69
2021/09/18 09:52:33;;;;;;;1.60;1.05;;;19.20;96.70;;;;;;5030392;28;20025;-69
2021/09/18 09:55:11;;;;;;;1.25;0.90;;;19.20;96.70;;;;;;5030145;28;20490;-69
2021/09/18 09:57:38;;;;;;;2.08;1.00;;;19.20;96.80;;;;;;5030353;28;20576;-69
2021/09/18 10:00:08;;;;;;;4.07;1.05;;;19.10;96.90;;;;;;5021584;28;20029;-69
2021/09/18 10:02:36;;;;;;;5.10;1.10;;;19.00;97.00;;;;;;5029380;28;20094;-69
2021/09/18 10:05:03;;;;;;;3.67;0.88;;;18.90;97.20;;;;;;5031575;28;20017;-69
2021/09/18 10:07:29;;;;;;;1.48;0.95;;;18.80;97.20;;;;;;5025991;28;20037;-69
2021/09/18 10:09:55;;;;;;;2.65;1.20;;;18.80;97.30;;;;;;5027939;28;20022;-69
2021/09/18 10:12:22;;;;;;;4.57;1.33;;;18.80;97.30;;;;;;5028644;28;20038;-69
2021/09/18 10:14:52;;;;;;;9.52;1.60;;;18.80;97.70;;;;;;5028547;28;20028;-70
2021/09/18 10:17:18;;;;;;;1.23;1.00;;;18.80;96.90;;;;;;5021935;28;20105;-69
2021/09/18 10:25:16;;;;;;;1.85;0.70;;;18.80;95.70;;;;;;5022691;28;20030;-70
2021/09/18 10:28:09;;;;;;;0.82;0.65;;;18.70;95.10;;;;;;5031189;28;20104;-68
2021/09/18 10:30:51;;;;;;;1.58;1.00;;;18.70;95.20;;;;;;5020562;28;20028;-70
2021/09/18 10:33:27;;;;;;;1.58;0.90;;;18.70;95.60;;;;;;5026944;28;20038;-69
2021/09/18 10:36:05;;;;;;;1.25;0.90;;;18.90;95.50;;;;;;5022291;28;20083;-69
2021/09/18 10:38:34;;;;;;;1.77;0.98;;;19.00;95.30;;;;;;5030558;28;20030;-69
2021/09/18 10:41:13;;;;;;;2.13;0.73;;;19.10;95.10;;;;;;5027474;28;20030;-68
2021/09/18 10:43:42;;;;;;;1.45;0.95;;;19.10;94.70;;;;;;5030008;28;20028;-68
2021/09/18 10:46:11;;;;;;;0.90;0.63;;;19.20;94.80;;;;;;5031032;28;20089;-68
2021/09/18 10:48:47;;;;;;;1.63;0.90;;;19.10;94.60;;;;;;5033595;28;20442;-68
2021/09/18 10:51:34;;;;;;;0.77;0.70;;;19.10;94.40;;;;;;5038530;28;20039;-70
2021/09/18 10:54:05;;;;;;;1.83;0.85;;;19.10;94.70;;;;;;5025089;28;20107;-69
2021/09/18 10:57:08;;;;;;;0.75;0.68;;;19.20;94.60;;;;;;5028688;28;20058;-70
2021/09/18 10:59:45;;;;;;;3.30;0.55;;;19.30;93.80;;;;;;5030911;28;20105;-70
2021/09/18 11:02:30;;;;;;;1.08;0.70;;;19.30;94.00;;;;;;5033670;28;20037;-70
2021/09/18 11:04:57;;;;;;;1.15;0.80;;;19.20;93.90;;;;;;5032249;28;20033;-69
2021/09/18 11:07:40;;;;;;;1.35;0.80;;;19.30;94.00;;;;;;5035069;28;20025;-70
2021/09/18 11:10:08;;;;;;;0.80;0.70;;;19.30;93.90;;;;;;5034696;28;20117;-70
2021/09/18 11:12:34;;;;;;;0.82;0.60;;;19.20;93.60;;;;;;5034882;28;20144;-70
2021/09/18 11:15:01;;;;;;;2.08;0.80;;;19.20;94.00;;;;;;5033264;28;20030;-69
2021/09/18 11:17:37;;;;;;;2.53;1.00;;;19.20;94.20;;;;;;5052344;28;20036;-70
2021/09/18 11:20:14;;;;;;;0.90;0.65;;;19.20;94.20;;;;;;5031654;28;20052;-69
2021/09/18 11:22:40;;;;;;;1.60;0.82;;;19.10;94.30;;;;;;5027545;28;20033;-71
2021/09/18 11:25:25;;;;;;;1.63;1.02;;;18.80;94.60;;;;;;5039907;28;20505;-71
2021/09/18 11:28:13;;;;;;;2.50;1.40;;;18.40;95.30;;;;;;5029695;28;20044;-70
2021/09/18 11:30:53;;;;;;;1.80;1.02;;;18.10;95.70;;;;;;5033105;28;20045;-70
2021/09/18 11:33:21;;;;;;;1.55;1.05;;;17.90;96.10;;;;;;5034672;28;20120;-70
2021/09/18 11:35:55;;;;;;;2.85;1.30;;;17.60;96.40;;;;;;5036066;28;20122;-69
2021/09/18 11:38:23;;;;;;;;;;;17.40;96.60;;;;;;5032892;28;20172;-69
2021/09/18 11:40:48;;;;;;;1.73;0.93;;;17.30;96.80;;;;;;5040446;28;20273;-69
2021/09/18 11:43:14;;;;;;;4.07;1.20;;;17.30;96.70;;;;;;5032395;28;20030;-70
2021/09/18 11:45:39;;;;;;;1.50;1.20;;;17.30;96.80;;;;;;5034953;28;20033;-69
2021/09/18 11:48:09;;;;;;;1.65;1.30;;;17.30;97.00;;;;;;5030902;28;20030;-70
2021/09/18 11:50:39;;;;;;;3.60;1.55;;;17.20;97.10;;;;;;5032503;28;20029;-61
2021/09/18 11:53:11;;;;;;;3.80;1.35;;;17.20;97.30;;;;;;5037389;28;20064;-72
2021/09/18 11:55:46;;;;;;;3.63;1.20;;;17.30;97.10;;;;;;5036283;28;20460;-68
2021/09/18 11:58:16;;;;;;;2.85;1.40;;;17.30;97.00;;;;;;5036436;28;20064;-71
2021/09/18 12:00:50;;;;;;;2.63;1.50;;;17.40;97.00;;;;;;5039861;28;20128;-68
2021/09/18 12:03:30;;;;;;;2.40;1.30;;;17.50;96.80;;;;;;5037843;28;20059;-69
2021/09/18 12:06:02;;;;;;;3.55;1.60;;;17.60;96.70;;;;;;5042023;28;20028;-70
2021/09/18 12:08:29;;;;;;;2.80;1.63;;;17.70;96.70;;;;;;5032289;28;20417;-67
2021/09/18 12:11:09;;;;;;;2.45;1.63;;;17.80;96.40;;;;;;5031554;28;20025;-72
2021/09/18 12:13:37;;;;;;;3.50;1.63;;;17.80;96.20;;;;;;5040522;28;20391;-70
2021/09/18 12:16:04;;;;;;;2.83;1.52;;;18.00;96.10;;;;;;5017911;28;20037;-70
2021/09/18 12:18:35;;;;;;;3.95;1.40;;;18.00;96.10;;;;;;5021473;28;20119;-71
2021/09/18 12:21:09;;;;;;;3.05;1.77;;;18.10;96.10;;;;;;5018795;28;20429;-72
2021/09/18 12:23:44;;;;;;;6.10;2.10;;;18.10;96.00;;;;;;5016746;28;20432;-68
2021/09/18 12:26:10;;;;;;;5.10;1.90;;;18.20;95.80;;;;;;5030816;28;20043;-69
2021/09/18 12:28:37;;;;;;;3.65;2.10;;;18.20;95.80;;;;;;5038227;28;20363;-70
2021/09/18 12:31:16;;;;;;;4.85;2.00;;;18.20;95.80;;;;;;5039933;28;20083;-69
2021/09/18 12:33:42;;;;;;;4.07;2.20;;;18.30;95.70;;;;;;5034039;28;20378;-70
2021/09/18 12:36:12;;;;;;;3.67;2.00;;;18.40;95.50;;;;;;5031346;28;20076;-71
2021/09/18 12:38:39;;;;;;;4.10;2.17;;;18.40;95.50;;;;;;5036915;28;20060;-71
2021/09/18 12:41:11;;;;;;;4.22;2.13;;;18.50;95.40;;;;;;5042486;28;20041;-71
2021/09/18 12:43:37;;;;;;;2.33;1.58;;;18.50;95.50;;;;;;5030369;28;20033;-72
2021/09/18 12:46:13;;;;;;;3.30;2.20;;;18.60;95.50;;;;;;5025889;28;20026;-72
2021/09/18 12:48:41;;;;;;;3.25;2.00;;;18.60;95.20;;;;;;5038282;28;20481;-72
2021/09/18 12:51:09;;;;;;;4.22;2.10;;;18.50;95.20;;;;;;5030223;28;20038;-72
2021/09/18 12:53:50;;;;;;;10.82;3.50;;;18.50;95.20;;;;;;5030107;28;20493;-71
2021/09/18 12:56:27;;;;;;;8.25;6.00;;;18.40;95.00;;;;;;5023600;28;20425;-72